createdAt,value
2023-05-12T00:03:17.569Z,12.10
2023-05-12T00:07:19.096Z,12.06
2023-05-12T00:11:20.625Z,11.98
2023-05-12T00:15:22.736Z,11.93
2023-05-12T00:19:25.658Z,11.88
2023-05-12T00:23:27.139Z,11.85
2023-05-12T00:27:28.662Z,11.79
2023-05-12T00:31:30.396Z,11.88
2023-05-12T00:35:33.280Z,12.08
2023-05-12T00:39:34.813Z,12.10
2023-05-12T00:43:36.330Z,11.93
2023-05-12T00:47:38.064Z,12.01
2023-05-12T00:51:41.031Z,12.19
2023-05-12T00:55:43.590Z,12.07
2023-05-12T00:59:45.082Z,12.03
2023-05-12T01:03:46.829Z,12.09
2023-05-12T01:07:49.844Z,12.00
2023-05-12T01:11:51.520Z,11.79
2023-05-12T01:15:55.861Z,11.57
2023-05-12T01:20:00.163Z,11.66
2023-05-12T01:24:07.306Z,11.49
2023-05-12T01:28:10.395Z,11.60
2023-05-12T01:32:12.485Z,11.37
2023-05-12T01:36:13.974Z,11.35
2023-05-12T01:40:15.538Z,11.29
2023-05-12T01:44:18.382Z,11.30
2023-05-12T01:48:19.837Z,11.27
2023-05-12T01:52:21.322Z,11.15
2023-05-12T01:56:22.834Z,11.19
2023-05-12T02:00:25.694Z,11.21
2023-05-12T02:04:27.185Z,11.21
2023-05-12T02:08:28.924Z,11.11
2023-05-12T02:12:30.398Z,11.11
2023-05-12T02:16:33.274Z,10.98
2023-05-12T02:20:34.834Z,10.80
2023-05-12T02:24:36.326Z,10.78
2023-05-12T02:28:37.808Z,10.71
2023-05-12T02:32:40.677Z,10.74
2023-05-12T02:36:42.210Z,10.80
2023-05-12T02:40:43.707Z,10.69
2023-05-12T02:44:45.202Z,10.75
2023-05-12T02:48:48.030Z,10.67
2023-05-12T02:52:49.902Z,10.57
2023-05-12T02:56:51.368Z,10.35
2023-05-12T03:01:03.159Z,10.52
2023-05-12T03:05:12.535Z,10.40
2023-05-12T03:09:14.026Z,10.30
2023-05-12T03:13:15.567Z,10.23
2023-05-12T03:17:17.120Z,10.21
2023-05-12T03:21:20.047Z,10.18
2023-05-12T03:25:21.531Z,10.15
2023-05-12T03:29:23.010Z,10.19
2023-05-12T03:33:24.602Z,10.24
2023-05-12T03:37:27.431Z,10.14
2023-05-12T03:41:28.993Z,10.36
2023-05-12T03:45:30.481Z,10.27
2023-05-12T03:49:31.966Z,10.32
2023-05-12T03:53:34.837Z,10.27
2023-05-12T03:57:36.339Z,10.12
2023-05-12T04:01:37.921Z,10.00
2023-05-12T04:05:39.545Z,10.04
2023-05-12T04:09:42.508Z,10.09
2023-05-12T04:13:44.063Z,10.20
2023-05-12T04:17:45.599Z,10.28
2023-05-12T04:21:47.117Z,10.34
2023-05-12T04:25:49.966Z,10.52
2023-05-12T04:29:51.438Z,10.68
2023-05-12T04:33:52.923Z,10.80
2023-05-12T04:37:54.429Z,10.92
2023-05-12T04:41:57.256Z,11.01
2023-05-12T04:46:00.222Z,11.04
2023-05-12T04:50:02.094Z,11.13
2023-05-12T04:54:03.961Z,11.20
2023-05-12T04:58:06.804Z,11.34
2023-05-12T05:02:08.337Z,11.62
2023-05-12T05:06:09.849Z,11.78
2023-05-12T05:10:11.385Z,11.99
2023-05-12T05:14:14.206Z,11.90
2023-05-12T05:18:15.793Z,12.05
2023-05-12T05:22:17.358Z,11.99
2023-05-12T05:26:18.823Z,12.04
2023-05-12T05:30:21.723Z,12.04
2023-05-12T05:34:23.273Z,12.18
2023-05-12T05:38:24.810Z,12.37
2023-05-12T05:42:26.301Z,12.47
2023-05-12T05:46:29.153Z,12.85
2023-05-12T05:50:30.677Z,13.07
2023-05-12T05:54:32.167Z,13.24
2023-05-12T05:58:33.703Z,13.46
2023-05-12T06:02:36.676Z,13.64
2023-05-12T06:06:38.275Z,13.83
2023-05-12T06:10:39.882Z,13.84
2023-05-12T06:14:41.352Z,13.99
2023-05-12T06:18:44.228Z,14.09
2023-05-12T06:22:45.759Z,14.30
2023-05-12T06:26:47.239Z,14.25
2023-05-12T06:30:48.708Z,14.10
2023-05-12T06:34:51.768Z,14.03
2023-05-12T06:38:53.245Z,14.22
2023-05-12T06:42:54.749Z,14.25
2023-05-12T06:46:56.280Z,14.78
2023-05-12T06:50:59.129Z,14.84
2023-05-12T06:55:00.632Z,14.60
2023-05-12T06:59:02.111Z,14.93
2023-05-12T07:03:04.076Z,15.13
2023-05-12T07:07:06.929Z,15.55
2023-05-12T07:11:08.428Z,15.62
2023-05-12T07:15:10.689Z,15.58
2023-05-12T07:19:12.288Z,16.09
2023-05-12T07:23:16.919Z,16.22
2023-05-12T07:27:18.582Z,16.37
2023-05-12T07:31:20.153Z,16.50
2023-05-12T07:35:22.027Z,16.67
2023-05-12T07:39:25.267Z,16.83
2023-05-12T07:43:27.109Z,17.08
2023-05-12T07:47:28.746Z,17.04
2023-05-12T07:51:30.283Z,17.36
2023-05-12T07:55:33.415Z,17.22
2023-05-12T07:59:34.916Z,17.16
2023-05-12T08:03:36.656Z,17.35
2023-05-12T08:07:38.790Z,17.60
2023-05-12T08:11:43.222Z,17.55
2023-05-12T08:15:46.149Z,17.65
2023-05-12T08:19:47.700Z,17.79
2023-05-12T08:23:49.408Z,17.73
2023-05-12T08:27:52.228Z,17.84
2023-05-12T08:31:53.771Z,18.07
2023-05-12T08:35:55.274Z,18.23
2023-05-12T08:39:56.766Z,18.15
2023-05-12T08:44:00.317Z,18.40
2023-05-12T08:48:04.489Z,18.49
2023-05-12T08:52:08.102Z,18.32
2023-05-12T09:00:18.958Z,18.77
2023-05-12T09:04:20.676Z,18.76
2023-05-12T09:08:22.954Z,19.12
2023-05-12T09:12:26.649Z,19.41
2023-05-12T09:16:33.018Z,19.18
2023-05-12T09:20:34.911Z,18.98
2023-05-12T09:24:37.606Z,19.19
2023-05-12T09:28:39.104Z,19.43
2023-05-12T09:32:42.023Z,19.64
2023-05-12T09:36:43.934Z,19.87
2023-05-12T09:40:45.518Z,19.92
2023-05-12T09:44:46.992Z,20.06
2023-05-12T09:48:50.068Z,20.20
2023-05-12T09:52:51.628Z,20.48
2023-05-12T09:56:57.494Z,20.44
2023-05-12T10:01:20.772Z,20.37
2023-05-12T10:05:22.724Z,20.59
2023-05-12T10:09:28.642Z,21.10
2023-05-12T10:13:30.802Z,20.99
2023-05-12T10:17:33.402Z,21.15
2023-05-12T10:21:37.352Z,20.35
2023-05-12T10:25:41.379Z,19.64
2023-05-12T10:29:43.574Z,19.35
2023-05-12T10:33:55.826Z,18.65
2023-05-12T10:38:01.169Z,18.37
2023-05-12T10:42:05.962Z,18.74
2023-05-12T10:46:09.254Z,18.90
2023-05-12T10:50:11.455Z,19.20
2023-05-12T10:54:21.202Z,19.31
2023-05-12T10:58:23.088Z,19.13
2023-05-12T11:02:27.715Z,19.87
2023-05-12T11:06:30.600Z,19.71
2023-05-12T11:10:35.350Z,18.83
2023-05-12T11:14:38.609Z,18.67
2023-05-12T11:18:40.143Z,18.54
2023-05-12T11:22:42.048Z,18.61
2023-05-12T11:26:44.873Z,18.99
2023-05-12T11:30:52.512Z,19.69
2023-05-12T11:34:55.518Z,19.40
2023-05-12T11:38:56.991Z,19.41
2023-05-12T11:43:09.991Z,18.97
2023-05-12T11:47:13.731Z,18.78
2023-05-12T11:51:15.227Z,18.63
2023-05-12T11:55:21.082Z,18.48
2023-05-12T11:59:28.349Z,18.68
2023-05-12T12:03:30.026Z,19.11
2023-05-12T12:07:32.419Z,19.79
2023-05-12T12:11:33.937Z,19.36
2023-05-12T12:15:36.845Z,19.48
2023-05-12T12:19:38.409Z,20.03
2023-05-12T12:23:50.469Z,19.60
2023-05-12T12:27:52.628Z,19.03
2023-05-12T12:31:55.962Z,18.67
2023-05-12T12:35:57.446Z,18.32
2023-05-12T12:39:59.028Z,18.17
2023-05-12T12:44:00.556Z,18.15
2023-05-12T12:48:03.878Z,18.37
2023-05-12T12:52:06.093Z,18.62
2023-05-12T12:56:07.789Z,18.82
2023-05-12T13:00:10.432Z,19.38
2023-05-12T13:04:13.290Z,21.18
2023-05-12T13:08:14.903Z,22.91
2023-05-12T13:12:16.439Z,22.48
2023-05-12T13:16:18.070Z,20.74
2023-05-12T13:20:21.347Z,20.16
2023-05-12T13:24:23.122Z,19.96
2023-05-12T13:28:24.688Z,19.69
2023-05-12T13:32:26.259Z,19.56
2023-05-12T13:36:29.117Z,19.50
2023-05-12T13:40:30.672Z,19.18
2023-05-12T13:44:32.165Z,19.18
2023-05-12T13:48:33.665Z,18.90
2023-05-12T13:52:36.541Z,18.77
2023-05-12T13:56:38.026Z,18.96
2023-05-12T14:00:39.673Z,18.92
2023-05-12T14:04:41.207Z,19.12
2023-05-12T14:08:44.089Z,19.62
2023-05-12T14:12:46.712Z,21.02
2023-05-12T14:16:48.442Z,22.39
2023-05-12T14:20:50.492Z,21.65
2023-05-12T14:24:53.446Z,21.53
2023-05-12T14:28:55.000Z,20.83
2023-05-12T14:32:56.640Z,20.06
2023-05-12T14:36:58.157Z,19.60
2023-05-12T14:41:01.026Z,19.58
2023-05-12T14:45:02.516Z,19.98
2023-05-12T14:49:03.994Z,19.43
2023-05-12T14:53:05.527Z,19.34
2023-05-12T14:57:08.515Z,19.03
2023-05-12T15:01:10.034Z,19.03
2023-05-12T15:05:12.899Z,19.05
2023-05-12T15:09:14.510Z,19.11
2023-05-12T15:13:17.345Z,19.21
2023-05-12T15:17:19.185Z,19.32
2023-05-12T15:21:20.834Z,19.38
2023-05-12T15:25:22.420Z,22.04
2023-05-12T15:29:25.325Z,22.35
2023-05-12T15:33:26.864Z,22.30
2023-05-12T15:37:28.333Z,21.32
2023-05-12T15:41:29.842Z,20.49
2023-05-12T15:45:32.694Z,20.51
2023-05-12T15:49:34.220Z,20.30
2023-05-12T15:53:35.711Z,20.22
2023-05-12T15:57:37.211Z,20.68
2023-05-12T16:01:40.081Z,20.80
2023-05-12T16:05:41.613Z,20.71
2023-05-12T16:09:43.130Z,20.03
2023-05-12T16:13:44.688Z,20.42
2023-05-12T16:17:47.577Z,20.25
2023-05-12T16:21:49.105Z,20.33
2023-05-12T16:25:50.678Z,20.37
2023-05-12T16:29:52.160Z,20.28
2023-05-12T16:33:54.970Z,20.11
2023-05-12T16:37:56.442Z,19.72
2023-05-12T16:41:57.949Z,19.44
2023-05-12T16:46:00.081Z,19.14
2023-05-12T16:50:03.203Z,18.87
2023-05-12T16:54:04.743Z,18.87
2023-05-12T16:58:06.225Z,18.90
2023-05-12T17:02:07.963Z,18.99
2023-05-12T17:06:10.855Z,19.04
2023-05-12T17:10:12.386Z,19.12
2023-05-12T17:14:13.872Z,18.96
2023-05-12T17:18:15.405Z,18.80
2023-05-12T17:22:18.234Z,18.23
2023-05-12T17:26:19.779Z,17.83
2023-05-12T17:30:21.573Z,17.25
2023-05-12T17:34:23.110Z,16.92
2023-05-12T17:38:26.016Z,16.68
2023-05-12T17:42:27.664Z,16.52
2023-05-12T17:46:29.280Z,16.48
2023-05-12T17:50:30.820Z,16.44
2023-05-12T17:54:34.413Z,16.33
2023-05-12T17:58:35.902Z,16.29
2023-05-12T18:02:37.715Z,16.15
2023-05-12T18:06:39.563Z,15.91
2023-05-12T18:10:42.503Z,15.81
2023-05-12T18:14:44.031Z,15.64
2023-05-12T18:18:45.575Z,15.55
2023-05-12T18:22:47.096Z,15.41
2023-05-12T18:26:49.941Z,15.22
2023-05-12T18:30:51.557Z,14.92
2023-05-12T18:34:53.242Z,14.68
2023-05-12T18:38:55.269Z,14.37
2023-05-12T18:42:58.106Z,14.14
2023-05-12T18:46:59.617Z,13.95
2023-05-12T18:51:01.196Z,13.90
2023-05-12T18:55:02.796Z,13.89
2023-05-12T18:59:05.655Z,13.70
2023-05-12T19:03:07.202Z,13.58
2023-05-12T19:07:08.825Z,13.47
2023-05-12T19:11:10.335Z,13.35
2023-05-12T19:15:13.190Z,13.28
2023-05-12T19:19:14.712Z,13.20
2023-05-12T19:23:16.225Z,13.17
2023-05-12T19:27:17.895Z,13.18
2023-05-12T19:31:20.849Z,13.13
2023-05-12T19:35:22.758Z,12.99
2023-05-12T19:39:24.566Z,12.54
2023-05-12T19:43:26.046Z,12.32
2023-05-12T19:47:29.639Z,12.10
2023-05-12T19:51:31.352Z,11.94
2023-05-12T19:55:32.947Z,11.79
2023-05-12T19:59:34.428Z,11.70
2023-05-12T20:03:37.372Z,11.62
2023-05-12T20:07:38.860Z,11.53
2023-05-12T20:11:40.367Z,11.38
2023-05-12T20:15:41.887Z,11.33
2023-05-12T20:19:44.743Z,11.29
2023-05-12T20:23:46.238Z,11.41
2023-05-12T20:27:47.690Z,11.47
2023-05-12T20:31:50.853Z,11.53
2023-05-12T20:35:53.989Z,11.46
2023-05-12T20:39:55.708Z,10.87
2023-05-12T20:43:57.194Z,10.50
2023-05-12T20:47:58.708Z,10.55
2023-05-12T20:52:01.573Z,10.45
2023-05-12T20:56:03.068Z,10.25
2023-05-12T21:00:06.219Z,10.15
2023-05-12T21:04:07.735Z,10.30
2023-05-12T21:08:10.588Z,10.20
2023-05-12T21:12:12.117Z,10.08
2023-05-12T21:16:13.797Z,10.17
2023-05-12T21:20:15.330Z,10.15
2023-05-12T21:24:18.142Z,10.08
2023-05-12T21:28:19.621Z,10.05
2023-05-12T21:32:21.157Z,10.01
2023-05-12T21:36:22.659Z,10.15
2023-05-12T21:40:25.474Z,10.29
2023-05-12T21:44:26.960Z,10.24
2023-05-12T21:48:28.441Z,10.03
2023-05-12T21:52:30.087Z,9.90
2023-05-12T21:56:32.932Z,9.69
2023-05-12T22:00:34.429Z,9.48
2023-05-12T22:04:35.978Z,9.27
2023-05-12T22:08:37.867Z,9.24
2023-05-12T22:12:41.100Z,9.13
2023-05-12T22:16:42.919Z,9.07
2023-05-12T22:20:44.491Z,9.09
2023-05-12T22:24:45.959Z,9.15
2023-05-12T22:28:48.760Z,9.27
2023-05-12T22:32:50.386Z,9.41
2023-05-12T22:36:51.958Z,9.29
2023-05-12T22:40:54.187Z,9.17
2023-05-12T22:44:57.013Z,9.38
2023-05-12T22:48:58.491Z,9.78
2023-05-12T22:52:59.960Z,9.97
2023-05-12T22:57:01.438Z,10.19
2023-05-12T23:01:04.510Z,10.40
2023-05-12T23:05:06.918Z,10.52
2023-05-12T23:09:08.397Z,10.38
2023-05-12T23:13:09.899Z,10.12
2023-05-12T23:17:12.728Z,10.00
2023-05-12T23:21:14.196Z,10.07
2023-05-12T23:25:15.686Z,10.25
2023-05-12T23:29:17.156Z,10.29
2023-05-12T23:33:20.078Z,10.39
2023-05-12T23:37:21.643Z,10.40
2023-05-12T23:41:23.181Z,10.49
2023-05-12T23:45:24.708Z,10.63
2023-05-12T23:49:27.536Z,10.68
2023-05-12T23:53:29.064Z,10.65
2023-05-12T23:57:30.546Z,10.67
